sensor_id;sensor_type;location;lat;lon;timestamp;P1;durP1;ratioP1;P2;durP2;ratioP2
21168;SDS011;10742;51.816;8.662;2024-01-16T00:00:13;11.23;;;2.40;;
21168;SDS011;10742;51.816;8.662;2024-01-16T00:03:34;7.13;;;1.97;;
21168;SDS011;10742;51.816;8.662;2024-01-16T00:06:56;9.67;;;2.30;;
21168;SDS011;10742;51.816;8.662;2024-01-16T00:10:17;5.00;;;1.70;;
21168;SDS011;10742;51.816;8.662;2024-01-16T00:13:39;12.67;;;2.17;;
21168;SDS011;10742;51.816;8.662;2024-01-16T00:17:00;11.27;;;2.23;;
21168;SDS011;10742;51.816;8.662;2024-01-16T00:20:21;6.23;;;1.83;;
21168;SDS011;10742;51.816;8.662;2024-01-16T00:23:45;7.80;;;2.10;;
21168;SDS011;10742;51.816;8.662;2024-01-16T00:27:06;6.93;;;1.97;;
21168;SDS011;10742;51.816;8.662;2024-01-16T00:30:29;6.37;;;2.17;;
21168;SDS011;10742;51.816;8.662;2024-01-16T00:33:50;8.37;;;2.33;;
21168;SDS011;10742;51.816;8.662;2024-01-16T00:37:11;8.27;;;2.30;;
21168;SDS011;10742;51.816;8.662;2024-01-16T00:40:33;8.47;;;2.47;;
21168;SDS011;10742;51.816;8.662;2024-01-16T00:43:54;7.43;;;2.07;;
21168;SDS011;10742;51.816;8.662;2024-01-16T00:47:16;5.93;;;2.30;;
21168;SDS011;10742;51.816;8.662;2024-01-16T00:50:37;9.93;;;2.60;;
21168;SDS011;10742;51.816;8.662;2024-01-16T00:53:58;9.80;;;2.47;;
21168;SDS011;10742;51.816;8.662;2024-01-16T00:57:20;9.27;;;2.20;;
21168;SDS011;10742;51.816;8.662;2024-01-16T01:00:42;9.20;;;2.50;;
21168;SDS011;10742;51.816;8.662;2024-01-16T01:04:03;11.43;;;2.80;;
21168;SDS011;10742;51.816;8.662;2024-01-16T01:07:24;8.47;;;2.90;;
21168;SDS011;10742;51.816;8.662;2024-01-16T01:10:47;9.47;;;2.57;;
21168;SDS011;10742;51.816;8.662;2024-01-16T01:14:08;8.43;;;2.63;;
21168;SDS011;10742;51.816;8.662;2024-01-16T01:17:30;12.00;;;3.03;;
21168;SDS011;10742;51.816;8.662;2024-01-16T01:20:52;9.70;;;3.30;;
21168;SDS011;10742;51.816;8.662;2024-01-16T01:24:13;12.40;;;3.13;;
21168;SDS011;10742;51.816;8.662;2024-01-16T01:27:34;16.53;;;3.03;;
21168;SDS011;10742;51.816;8.662;2024-01-16T01:30:55;11.30;;;3.00;;
21168;SDS011;10742;51.816;8.662;2024-01-16T01:34:17;17.97;;;2.90;;
21168;SDS011;10742;51.816;8.662;2024-01-16T01:37:38;15.17;;;2.83;;
21168;SDS011;10742;51.816;8.662;2024-01-16T01:41:01;10.07;;;3.10;;
21168;SDS011;10742;51.816;8.662;2024-01-16T01:44:22;13.37;;;3.07;;
21168;SDS011;10742;51.816;8.662;2024-01-16T01:47:45;11.93;;;3.00;;
21168;SDS011;10742;51.816;8.662;2024-01-16T01:51:08;11.00;;;3.23;;
21168;SDS011;10742;51.816;8.662;2024-01-16T01:54:30;8.43;;;2.77;;
21168;SDS011;10742;51.816;8.662;2024-01-16T01:57:55;9.17;;;2.90;;
21168;SDS011;10742;51.816;8.662;2024-01-16T02:01:17;15.00;;;3.20;;
21168;SDS011;10742;51.816;8.662;2024-01-16T02:04:40;9.53;;;3.00;;
21168;SDS011;10742;51.816;8.662;2024-01-16T02:08:07;11.50;;;3.00;;
21168;SDS011;10742;51.816;8.662;2024-01-16T02:11:29;11.67;;;3.80;;
21168;SDS011;10742;51.816;8.662;2024-01-16T02:14:50;12.77;;;3.40;;
21168;SDS011;10742;51.816;8.662;2024-01-16T02:18:12;12.43;;;3.07;;
21168;SDS011;10742;51.816;8.662;2024-01-16T02:21:37;8.70;;;3.00;;
21168;SDS011;10742;51.816;8.662;2024-01-16T02:25:06;8.47;;;3.03;;
21168;SDS011;10742;51.816;8.662;2024-01-16T02:28:27;11.53;;;3.43;;
21168;SDS011;10742;51.816;8.662;2024-01-16T02:31:49;10.87;;;3.00;;
21168;SDS011;10742;51.816;8.662;2024-01-16T02:35:11;11.40;;;3.57;;
21168;SDS011;10742;51.816;8.662;2024-01-16T02:38:32;15.33;;;3.60;;
21168;SDS011;10742;51.816;8.662;2024-01-16T02:41:54;10.13;;;3.40;;
21168;SDS011;10742;51.816;8.662;2024-01-16T02:45:15;18.77;;;4.60;;
21168;SDS011;10742;51.816;8.662;2024-01-16T02:48:37;14.33;;;4.67;;
21168;SDS011;10742;51.816;8.662;2024-01-16T02:51:58;15.83;;;4.90;;
21168;SDS011;10742;51.816;8.662;2024-01-16T02:55:20;14.30;;;4.57;;
21168;SDS011;10742;51.816;8.662;2024-01-16T02:58:41;14.27;;;4.63;;
21168;SDS011;10742;51.816;8.662;2024-01-16T03:02:02;13.10;;;4.27;;
21168;SDS011;10742;51.816;8.662;2024-01-16T03:05:24;16.03;;;5.00;;
21168;SDS011;10742;51.816;8.662;2024-01-16T03:08:45;15.23;;;4.90;;
21168;SDS011;10742;51.816;8.662;2024-01-16T03:12:07;21.00;;;4.97;;
21168;SDS011;10742;51.816;8.662;2024-01-16T03:15:28;14.33;;;4.50;;
21168;SDS011;10742;51.816;8.662;2024-01-16T03:18:53;17.27;;;5.20;;
21168;SDS011;10742;51.816;8.662;2024-01-16T03:22:14;14.60;;;4.83;;
21168;SDS011;10742;51.816;8.662;2024-01-16T03:25:36;17.83;;;4.43;;
21168;SDS011;10742;51.816;8.662;2024-01-16T03:28:59;17.07;;;4.90;;
21168;SDS011;10742;51.816;8.662;2024-01-16T03:32:21;16.67;;;5.07;;
21168;SDS011;10742;51.816;8.662;2024-01-16T03:35:42;14.63;;;4.57;;
21168;SDS011;10742;51.816;8.662;2024-01-16T03:39:03;17.57;;;5.60;;
21168;SDS011;10742;51.816;8.662;2024-01-16T03:42:26;14.47;;;4.83;;
21168;SDS011;10742;51.816;8.662;2024-01-16T03:45:47;12.23;;;4.80;;
21168;SDS011;10742;51.816;8.662;2024-01-16T03:49:09;13.83;;;4.90;;
21168;SDS011;10742;51.816;8.662;2024-01-16T03:52:30;12.77;;;4.93;;
21168;SDS011;10742;51.816;8.662;2024-01-16T03:55:51;17.00;;;5.67;;
21168;SDS011;10742;51.816;8.662;2024-01-16T03:59:13;17.27;;;5.63;;
21168;SDS011;10742;51.816;8.662;2024-01-16T04:02:34;13.13;;;5.13;;
21168;SDS011;10742;51.816;8.662;2024-01-16T04:05:58;18.90;;;5.50;;
21168;SDS011;10742;51.816;8.662;2024-01-16T04:09:20;16.70;;;4.57;;
21168;SDS011;10742;51.816;8.662;2024-01-16T04:12:41;17.70;;;5.47;;
21168;SDS011;10742;51.816;8.662;2024-01-16T04:16:02;15.70;;;5.30;;
21168;SDS011;10742;51.816;8.662;2024-01-16T04:19:24;15.40;;;5.20;;
21168;SDS011;10742;51.816;8.662;2024-01-16T04:22:45;17.73;;;5.10;;
21168;SDS011;10742;51.816;8.662;2024-01-16T04:26:07;15.47;;;5.30;;
21168;SDS011;10742;51.816;8.662;2024-01-16T04:29:28;18.30;;;5.27;;
21168;SDS011;10742;51.816;8.662;2024-01-16T04:32:50;19.30;;;6.30;;
21168;SDS011;10742;51.816;8.662;2024-01-16T04:36:12;20.10;;;5.77;;
21168;SDS011;10742;51.816;8.662;2024-01-16T04:39:33;13.67;;;5.40;;
21168;SDS011;10742;51.816;8.662;2024-01-16T04:42:54;16.90;;;5.40;;
21168;SDS011;10742;51.816;8.662;2024-01-16T04:46:16;16.40;;;5.27;;
21168;SDS011;10742;51.816;8.662;2024-01-16T04:49:37;13.67;;;5.00;;
21168;SDS011;10742;51.816;8.662;2024-01-16T04:52:59;13.10;;;4.80;;
21168;SDS011;10742;51.816;8.662;2024-01-16T04:56:20;13.83;;;5.17;;
21168;SDS011;10742;51.816;8.662;2024-01-16T04:59:42;12.03;;;4.30;;
21168;SDS011;10742;51.816;8.662;2024-01-16T05:03:04;15.87;;;4.90;;
21168;SDS011;10742;51.816;8.662;2024-01-16T05:06:25;15.07;;;4.70;;
21168;SDS011;10742;51.816;8.662;2024-01-16T05:09:47;14.57;;;4.93;;
21168;SDS011;10742;51.816;8.662;2024-01-16T05:13:08;12.57;;;4.43;;
21168;SDS011;10742;51.816;8.662;2024-01-16T05:16:32;14.77;;;4.40;;
21168;SDS011;10742;51.816;8.662;2024-01-16T05:19:54;14.60;;;4.53;;
21168;SDS011;10742;51.816;8.662;2024-01-16T05:23:15;13.47;;;4.30;;
21168;SDS011;10742;51.816;8.662;2024-01-16T05:26:37;16.67;;;4.53;;
21168;SDS011;10742;51.816;8.662;2024-01-16T05:30:00;14.40;;;4.77;;
21168;SDS011;10742;51.816;8.662;2024-01-16T05:33:21;18.30;;;5.57;;
21168;SDS011;10742;51.816;8.662;2024-01-16T05:36:43;11.97;;;4.30;;
21168;SDS011;10742;51.816;8.662;2024-01-16T05:40:05;15.07;;;3.90;;
21168;SDS011;10742;51.816;8.662;2024-01-16T05:43:28;14.90;;;4.03;;
21168;SDS011;10742;51.816;8.662;2024-01-16T05:46:50;13.63;;;4.30;;
21168;SDS011;10742;51.816;8.662;2024-01-16T05:50:12;18.27;;;4.33;;
21168;SDS011;10742;51.816;8.662;2024-01-16T05:53:33;10.73;;;3.93;;
21168;SDS011;10742;51.816;8.662;2024-01-16T05:56:55;12.67;;;4.27;;
21168;SDS011;10742;51.816;8.662;2024-01-16T06:00:16;10.73;;;3.87;;
21168;SDS011;10742;51.816;8.662;2024-01-16T06:03:39;13.20;;;4.10;;
21168;SDS011;10742;51.816;8.662;2024-01-16T06:07:06;13.63;;;4.57;;
21168;SDS011;10742;51.816;8.662;2024-01-16T06:10:28;17.07;;;5.07;;
21168;SDS011;10742;51.816;8.662;2024-01-16T06:13:49;18.47;;;5.90;;
21168;SDS011;10742;51.816;8.662;2024-01-16T06:17:10;17.70;;;6.40;;
21168;SDS011;10742;51.816;8.662;2024-01-16T06:20:32;21.33;;;7.10;;
21168;SDS011;10742;51.816;8.662;2024-01-16T06:23:54;21.90;;;8.00;;
21168;SDS011;10742;51.816;8.662;2024-01-16T06:27:15;16.77;;;7.20;;
21168;SDS011;10742;51.816;8.662;2024-01-16T06:30:39;22.30;;;7.80;;
21168;SDS011;10742;51.816;8.662;2024-01-16T06:34:01;20.50;;;8.90;;
21168;SDS011;10742;51.816;8.662;2024-01-16T06:37:22;24.43;;;8.37;;
21168;SDS011;10742;51.816;8.662;2024-01-16T06:40:43;21.07;;;8.83;;
21168;SDS011;10742;51.816;8.662;2024-01-16T06:44:05;26.93;;;9.10;;
21168;SDS011;10742;51.816;8.662;2024-01-16T06:47:26;24.77;;;9.83;;
21168;SDS011;10742;51.816;8.662;2024-01-16T06:50:47;22.30;;;9.43;;
21168;SDS011;10742;51.816;8.662;2024-01-16T06:54:09;25.77;;;9.53;;
21168;SDS011;10742;51.816;8.662;2024-01-16T06:57:31;29.07;;;10.07;;
21168;SDS011;10742;51.816;8.662;2024-01-16T07:00:52;28.30;;;9.87;;
21168;SDS011;10742;51.816;8.662;2024-01-16T07:04:14;26.60;;;9.97;;
21168;SDS011;10742;51.816;8.662;2024-01-16T07:07:35;25.40;;;9.80;;
21168;SDS011;10742;51.816;8.662;2024-01-16T07:10:56;26.70;;;9.77;;
21168;SDS011;10742;51.816;8.662;2024-01-16T07:14:18;25.13;;;10.00;;
21168;SDS011;10742;51.816;8.662;2024-01-16T07:17:40;25.77;;;10.47;;
21168;SDS011;10742;51.816;8.662;2024-01-16T07:21:03;27.83;;;11.20;;
21168;SDS011;10742;51.816;8.662;2024-01-16T07:24:24;27.00;;;10.37;;
21168;SDS011;10742;51.816;8.662;2024-01-16T07:27:46;26.57;;;10.33;;
21168;SDS011;10742;51.816;8.662;2024-01-16T07:31:10;29.20;;;11.77;;
21168;SDS011;10742;51.816;8.662;2024-01-16T07:34:32;26.40;;;11.77;;
21168;SDS011;10742;51.816;8.662;2024-01-16T07:37:54;28.60;;;11.97;;
21168;SDS011;10742;51.816;8.662;2024-01-16T07:41:15;26.63;;;11.30;;
21168;SDS011;10742;51.816;8.662;2024-01-16T07:44:37;28.07;;;11.80;;
21168;SDS011;10742;51.816;8.662;2024-01-16T07:47:58;31.63;;;11.13;;
21168;SDS011;10742;51.816;8.662;2024-01-16T07:51:19;28.53;;;12.07;;
21168;SDS011;10742;51.816;8.662;2024-01-16T07:54:41;30.23;;;11.40;;
21168;SDS011;10742;51.816;8.662;2024-01-16T07:58:02;33.60;;;11.80;;
21168;SDS011;10742;51.816;8.662;2024-01-16T08:01:25;35.90;;;13.03;;
21168;SDS011;10742;51.816;8.662;2024-01-16T08:04:47;30.10;;;10.97;;
21168;SDS011;10742;51.816;8.662;2024-01-16T08:08:08;29.10;;;11.60;;
21168;SDS011;10742;51.816;8.662;2024-01-16T08:11:30;25.77;;;10.73;;
21168;SDS011;10742;51.816;8.662;2024-01-16T08:14:52;27.93;;;11.20;;
21168;SDS011;10742;51.816;8.662;2024-01-16T08:18:13;29.47;;;11.23;;
21168;SDS011;10742;51.816;8.662;2024-01-16T08:21:36;24.10;;;10.40;;
21168;SDS011;10742;51.816;8.662;2024-01-16T08:24:58;27.07;;;10.27;;
21168;SDS011;10742;51.816;8.662;2024-01-16T08:28:19;25.83;;;10.63;;
21168;SDS011;10742;51.816;8.662;2024-01-16T08:31:42;25.97;;;10.50;;
21168;SDS011;10742;51.816;8.662;2024-01-16T08:35:03;26.53;;;10.93;;
21168;SDS011;10742;51.816;8.662;2024-01-16T08:38:25;28.77;;;10.90;;
21168;SDS011;10742;51.816;8.662;2024-01-16T08:41:47;27.53;;;10.07;;
21168;SDS011;10742;51.816;8.662;2024-01-16T08:45:08;26.67;;;9.70;;
21168;SDS011;10742;51.816;8.662;2024-01-16T08:48:30;23.67;;;10.00;;
21168;SDS011;10742;51.816;8.662;2024-01-16T08:51:52;24.10;;;10.00;;
21168;SDS011;10742;51.816;8.662;2024-01-16T08:55:13;21.87;;;8.80;;
21168;SDS011;10742;51.816;8.662;2024-01-16T08:58:34;18.20;;;7.40;;
21168;SDS011;10742;51.816;8.662;2024-01-16T09:01:59;17.17;;;7.07;;
21168;SDS011;10742;51.816;8.662;2024-01-16T09:05:20;18.57;;;6.90;;
21168;SDS011;10742;51.816;8.662;2024-01-16T09:08:46;21.63;;;7.30;;
21168;SDS011;10742;51.816;8.662;2024-01-16T09:12:11;21.57;;;7.90;;
21168;SDS011;10742;51.816;8.662;2024-01-16T09:15:33;25.27;;;8.97;;
21168;SDS011;10742;51.816;8.662;2024-01-16T09:18:55;18.80;;;6.63;;
21168;SDS011;10742;51.816;8.662;2024-01-16T09:22:16;20.00;;;7.20;;
21168;SDS011;10742;51.816;8.662;2024-01-16T09:25:40;17.50;;;6.13;;
21168;SDS011;10742;51.816;8.662;2024-01-16T09:29:01;16.23;;;6.43;;
21168;SDS011;10742;51.816;8.662;2024-01-16T09:32:23;17.00;;;6.77;;
21168;SDS011;10742;51.816;8.662;2024-01-16T09:35:44;14.90;;;6.33;;
21168;SDS011;10742;51.816;8.662;2024-01-16T09:39:06;19.93;;;7.17;;
21168;SDS011;10742;51.816;8.662;2024-01-16T09:42:38;19.20;;;8.17;;
21168;SDS011;10742;51.816;8.662;2024-01-16T09:46:02;20.23;;;7.53;;
21168;SDS011;10742;51.816;8.662;2024-01-16T09:49:26;23.40;;;8.53;;
21168;SDS011;10742;51.816;8.662;2024-01-16T09:52:54;22.83;;;9.80;;
21168;SDS011;10742;51.816;8.662;2024-01-16T09:56:17;23.03;;;9.07;;
21168;SDS011;10742;51.816;8.662;2024-01-16T09:59:43;26.50;;;9.60;;
21168;SDS011;10742;51.816;8.662;2024-01-16T10:03:05;26.63;;;10.07;;
21168;SDS011;10742;51.816;8.662;2024-01-16T10:06:27;24.93;;;9.90;;
21168;SDS011;10742;51.816;8.662;2024-01-16T10:09:50;29.07;;;11.33;;
21168;SDS011;10742;51.816;8.662;2024-01-16T10:13:13;33.13;;;10.93;;
21168;SDS011;10742;51.816;8.662;2024-01-16T10:20:36;26.63;;;10.37;;
21168;SDS011;10742;51.816;8.662;2024-01-16T10:23:59;25.93;;;9.67;;
21168;SDS011;10742;51.816;8.662;2024-01-16T10:27:33;28.03;;;8.97;;
21168;SDS011;10742;51.816;8.662;2024-01-16T10:31:02;27.63;;;9.43;;
21168;SDS011;10742;51.816;8.662;2024-01-16T10:34:36;27.60;;;9.27;;
21168;SDS011;10742;51.816;8.662;2024-01-16T10:37:58;20.37;;;8.33;;
21168;SDS011;10742;51.816;8.662;2024-01-16T10:41:19;22.13;;;8.67;;
21168;SDS011;10742;51.816;8.662;2024-01-16T10:44:52;28.17;;;8.13;;
21168;SDS011;10742;51.816;8.662;2024-01-16T10:48:17;25.97;;;7.53;;
21168;SDS011;10742;51.816;8.662;2024-01-16T10:51:39;20.10;;;7.00;;
21168;SDS011;10742;51.816;8.662;2024-01-16T10:55:04;20.47;;;6.73;;
21168;SDS011;10742;51.816;8.662;2024-01-16T10:58:29;17.33;;;5.93;;
21168;SDS011;10742;51.816;8.662;2024-01-16T11:01:53;19.10;;;6.37;;
21168;SDS011;10742;51.816;8.662;2024-01-16T11:05:18;16.40;;;5.20;;
21168;SDS011;10742;51.816;8.662;2024-01-16T11:08:42;13.70;;;4.67;;
21168;SDS011;10742;51.816;8.662;2024-01-16T11:12:08;20.80;;;4.63;;
21168;SDS011;10742;51.816;8.662;2024-01-16T11:15:31;11.73;;;4.73;;
21168;SDS011;10742;51.816;8.662;2024-01-16T11:18:53;18.00;;;4.80;;
21168;SDS011;10742;51.816;8.662;2024-01-16T11:22:15;18.07;;;4.73;;
21168;SDS011;10742;51.816;8.662;2024-01-16T11:25:37;18.37;;;5.17;;
21168;SDS011;10742;51.816;8.662;2024-01-16T11:29:00;15.97;;;4.50;;
21168;SDS011;10742;51.816;8.662;2024-01-16T11:32:42;13.23;;;3.90;;
21168;SDS011;10742;51.816;8.662;2024-01-16T11:36:05;15.80;;;4.27;;
21168;SDS011;10742;51.816;8.662;2024-01-16T11:39:46;15.40;;;4.57;;
21168;SDS011;10742;51.816;8.662;2024-01-16T11:47:02;13.53;;;3.17;;
21168;SDS011;10742;51.816;8.662;2024-01-16T11:50:28;15.57;;;3.37;;
21168;SDS011;10742;51.816;8.662;2024-01-16T11:53:53;9.33;;;3.00;;
21168;SDS011;10742;51.816;8.662;2024-01-16T12:01:04;12.97;;;3.50;;
21168;SDS011;10742;51.816;8.662;2024-01-16T12:04:26;12.33;;;3.30;;
21168;SDS011;10742;51.816;8.662;2024-01-16T12:07:49;14.60;;;3.33;;
21168;SDS011;10742;51.816;8.662;2024-01-16T12:11:11;11.63;;;3.37;;
21168;SDS011;10742;51.816;8.662;2024-01-16T12:14:33;15.03;;;2.93;;
21168;SDS011;10742;51.816;8.662;2024-01-16T12:17:59;11.63;;;3.53;;
21168;SDS011;10742;51.816;8.662;2024-01-16T12:21:21;7.07;;;3.03;;
21168;SDS011;10742;51.816;8.662;2024-01-16T12:24:42;12.63;;;2.83;;
21168;SDS011;10742;51.816;8.662;2024-01-16T12:28:04;10.70;;;3.00;;
21168;SDS011;10742;51.816;8.662;2024-01-16T12:31:27;10.33;;;2.60;;
21168;SDS011;10742;51.816;8.662;2024-01-16T12:34:49;13.13;;;3.07;;
21168;SDS011;10742;51.816;8.662;2024-01-16T12:38:12;16.83;;;3.30;;
21168;SDS011;10742;51.816;8.662;2024-01-16T12:41:39;15.13;;;3.00;;
21168;SDS011;10742;51.816;8.662;2024-01-16T12:45:07;23.93;;;5.30;;
21168;SDS011;10742;51.816;8.662;2024-01-16T12:48:30;12.50;;;3.50;;
21168;SDS011;10742;51.816;8.662;2024-01-16T12:51:51;13.30;;;3.67;;
21168;SDS011;10742;51.816;8.662;2024-01-16T12:55:33;13.93;;;3.30;;
21168;SDS011;10742;51.816;8.662;2024-01-16T12:58:56;12.63;;;3.43;;
21168;SDS011;10742;51.816;8.662;2024-01-16T13:02:24;19.30;;;4.20;;
21168;SDS011;10742;51.816;8.662;2024-01-16T13:05:56;10.30;;;3.07;;
21168;SDS011;10742;51.816;8.662;2024-01-16T13:09:18;21.03;;;5.73;;
21168;SDS011;10742;51.816;8.662;2024-01-16T13:12:43;15.83;;;4.33;;
21168;SDS011;10742;51.816;8.662;2024-01-16T13:16:05;15.40;;;3.53;;
21168;SDS011;10742;51.816;8.662;2024-01-16T13:19:29;15.70;;;4.00;;
21168;SDS011;10742;51.816;8.662;2024-01-16T13:22:54;16.17;;;4.73;;
21168;SDS011;10742;51.816;8.662;2024-01-16T13:26:15;12.30;;;3.70;;
21168;SDS011;10742;51.816;8.662;2024-01-16T13:29:37;13.07;;;2.90;;
21168;SDS011;10742;51.816;8.662;2024-01-16T13:33:00;22.00;;;3.40;;
21168;SDS011;10742;51.816;8.662;2024-01-16T13:36:23;11.63;;;2.87;;
21168;SDS011;10742;51.816;8.662;2024-01-16T13:39:52;24.10;;;5.70;;
21168;SDS011;10742;51.816;8.662;2024-01-16T13:43:14;18.80;;;3.33;;
21168;SDS011;10742;51.816;8.662;2024-01-16T13:46:35;10.47;;;3.23;;
21168;SDS011;10742;51.816;8.662;2024-01-16T13:50:02;12.13;;;3.33;;
21168;SDS011;10742;51.816;8.662;2024-01-16T13:53:24;13.40;;;3.77;;
21168;SDS011;10742;51.816;8.662;2024-01-16T13:56:46;18.50;;;4.23;;
21168;SDS011;10742;51.816;8.662;2024-01-16T14:00:11;14.70;;;3.77;;
21168;SDS011;10742;51.816;8.662;2024-01-16T14:03:34;13.70;;;3.30;;
21168;SDS011;10742;51.816;8.662;2024-01-16T14:06:55;11.47;;;4.00;;
21168;SDS011;10742;51.816;8.662;2024-01-16T14:10:21;12.47;;;3.80;;
21168;SDS011;10742;51.816;8.662;2024-01-16T14:13:45;16.03;;;3.50;;
21168;SDS011;10742;51.816;8.662;2024-01-16T14:17:07;10.17;;;3.20;;
21168;SDS011;10742;51.816;8.662;2024-01-16T14:20:28;9.50;;;3.10;;
21168;SDS011;10742;51.816;8.662;2024-01-16T14:23:50;7.90;;;3.07;;
21168;SDS011;10742;51.816;8.662;2024-01-16T14:27:11;10.13;;;3.17;;
21168;SDS011;10742;51.816;8.662;2024-01-16T14:30:33;11.10;;;3.17;;
21168;SDS011;10742;51.816;8.662;2024-01-16T14:33:55;9.90;;;2.63;;
21168;SDS011;10742;51.816;8.662;2024-01-16T14:37:16;10.73;;;3.00;;
21168;SDS011;10742;51.816;8.662;2024-01-16T14:40:38;10.83;;;3.03;;
21168;SDS011;10742;51.816;8.662;2024-01-16T14:44:02;14.90;;;3.20;;
21168;SDS011;10742;51.816;8.662;2024-01-16T14:47:24;14.13;;;3.63;;
21168;SDS011;10742;51.816;8.662;2024-01-16T14:50:45;12.13;;;3.27;;
21168;SDS011;10742;51.816;8.662;2024-01-16T14:54:10;12.13;;;2.80;;
21168;SDS011;10742;51.816;8.662;2024-01-16T14:57:31;10.07;;;2.97;;
21168;SDS011;10742;51.816;8.662;2024-01-16T15:01:01;15.03;;;3.13;;
21168;SDS011;10742;51.816;8.662;2024-01-16T15:04:24;18.60;;;3.97;;
21168;SDS011;10742;51.816;8.662;2024-01-16T15:07:46;15.37;;;3.93;;
21168;SDS011;10742;51.816;8.662;2024-01-16T15:11:08;11.07;;;3.13;;
21168;SDS011;10742;51.816;8.662;2024-01-16T15:14:31;11.90;;;3.17;;
21168;SDS011;10742;51.816;8.662;2024-01-16T15:17:54;11.87;;;2.73;;
21168;SDS011;10742;51.816;8.662;2024-01-16T15:21:15;11.13;;;3.57;;
21168;SDS011;10742;51.816;8.662;2024-01-16T15:24:37;14.77;;;3.10;;
21168;SDS011;10742;51.816;8.662;2024-01-16T15:28:01;11.87;;;2.80;;
21168;SDS011;10742;51.816;8.662;2024-01-16T15:31:22;9.17;;;3.13;;
21168;SDS011;10742;51.816;8.662;2024-01-16T15:34:43;13.80;;;2.83;;
21168;SDS011;10742;51.816;8.662;2024-01-16T15:38:05;11.67;;;3.33;;
21168;SDS011;10742;51.816;8.662;2024-01-16T15:41:27;9.13;;;2.90;;
21168;SDS011;10742;51.816;8.662;2024-01-16T15:44:48;10.00;;;3.00;;
21168;SDS011;10742;51.816;8.662;2024-01-16T15:48:09;9.43;;;2.90;;
21168;SDS011;10742;51.816;8.662;2024-01-16T15:51:31;7.57;;;2.87;;
21168;SDS011;10742;51.816;8.662;2024-01-16T15:54:53;12.73;;;3.33;;
21168;SDS011;10742;51.816;8.662;2024-01-16T15:58:14;19.17;;;3.37;;
21168;SDS011;10742;51.816;8.662;2024-01-16T16:01:37;11.27;;;3.30;;
21168;SDS011;10742;51.816;8.662;2024-01-16T16:05:03;10.20;;;3.27;;
21168;SDS011;10742;51.816;8.662;2024-01-16T16:08:24;22.27;;;7.67;;
21168;SDS011;10742;51.816;8.662;2024-01-16T16:11:46;19.20;;;4.27;;
21168;SDS011;10742;51.816;8.662;2024-01-16T16:15:10;16.77;;;4.43;;
21168;SDS011;10742;51.816;8.662;2024-01-16T16:18:32;28.97;;;6.30;;
21168;SDS011;10742;51.816;8.662;2024-01-16T16:21:57;13.03;;;4.00;;
21168;SDS011;10742;51.816;8.662;2024-01-16T16:25:19;14.50;;;4.57;;
21168;SDS011;10742;51.816;8.662;2024-01-16T16:28:40;23.33;;;6.87;;
21168;SDS011;10742;51.816;8.662;2024-01-16T16:32:03;23.13;;;7.40;;
21168;SDS011;10742;51.816;8.662;2024-01-16T16:35:24;29.63;;;9.67;;
21168;SDS011;10742;51.816;8.662;2024-01-16T16:38:45;27.93;;;9.90;;
21168;SDS011;10742;51.816;8.662;2024-01-16T16:42:07;20.93;;;5.40;;
21168;SDS011;10742;51.816;8.662;2024-01-16T16:45:29;15.27;;;5.53;;
21168;SDS011;10742;51.816;8.662;2024-01-16T16:48:50;16.40;;;5.03;;
21168;SDS011;10742;51.816;8.662;2024-01-16T16:52:12;31.30;;;11.37;;
21168;SDS011;10742;51.816;8.662;2024-01-16T16:55:33;17.90;;;5.40;;
21168;SDS011;10742;51.816;8.662;2024-01-16T16:58:55;15.00;;;5.07;;
21168;SDS011;10742;51.816;8.662;2024-01-16T17:02:17;17.87;;;5.60;;
21168;SDS011;10742;51.816;8.662;2024-01-16T17:05:40;27.30;;;8.23;;
21168;SDS011;10742;51.816;8.662;2024-01-16T17:09:02;17.67;;;5.30;;
21168;SDS011;10742;51.816;8.662;2024-01-16T17:12:27;17.83;;;5.83;;
21168;SDS011;10742;51.816;8.662;2024-01-16T17:15:48;30.80;;;9.47;;
21168;SDS011;10742;51.816;8.662;2024-01-16T17:19:09;18.27;;;6.57;;
21168;SDS011;10742;51.816;8.662;2024-01-16T17:22:31;17.67;;;5.40;;
21168;SDS011;10742;51.816;8.662;2024-01-16T17:25:53;19.63;;;5.93;;
21168;SDS011;10742;51.816;8.662;2024-01-16T17:29:14;18.53;;;4.50;;
21168;SDS011;10742;51.816;8.662;2024-01-16T17:32:35;15.63;;;5.53;;
21168;SDS011;10742;51.816;8.662;2024-01-16T17:35:57;11.50;;;4.37;;
21168;SDS011;10742;51.816;8.662;2024-01-16T17:39:21;11.87;;;4.10;;
21168;SDS011;10742;51.816;8.662;2024-01-16T17:42:46;18.13;;;5.80;;
21168;SDS011;10742;51.816;8.662;2024-01-16T17:46:08;23.83;;;6.93;;
21168;SDS011;10742;51.816;8.662;2024-01-16T17:49:31;11.33;;;4.47;;
21168;SDS011;10742;51.816;8.662;2024-01-16T17:52:54;14.73;;;4.90;;
21168;SDS011;10742;51.816;8.662;2024-01-16T17:56:17;13.60;;;4.07;;
21168;SDS011;10742;51.816;8.662;2024-01-16T17:59:42;17.97;;;5.67;;
21168;SDS011;10742;51.816;8.662;2024-01-16T18:03:03;20.77;;;5.67;;
21168;SDS011;10742;51.816;8.662;2024-01-16T18:06:25;16.83;;;5.57;;
21168;SDS011;10742;51.816;8.662;2024-01-16T18:09:47;15.40;;;5.00;;
21168;SDS011;10742;51.816;8.662;2024-01-16T18:13:08;12.80;;;4.50;;
21168;SDS011;10742;51.816;8.662;2024-01-16T18:16:29;12.03;;;4.43;;
21168;SDS011;10742;51.816;8.662;2024-01-16T18:19:51;21.30;;;5.10;;
21168;SDS011;10742;51.816;8.662;2024-01-16T18:23:13;13.43;;;4.63;;
21168;SDS011;10742;51.816;8.662;2024-01-16T18:26:34;12.03;;;4.83;;
21168;SDS011;10742;51.816;8.662;2024-01-16T18:29:57;17.70;;;5.37;;
21168;SDS011;10742;51.816;8.662;2024-01-16T18:33:20;20.90;;;5.90;;
21168;SDS011;10742;51.816;8.662;2024-01-16T18:36:47;103.17;;;27.23;;
21168;SDS011;10742;51.816;8.662;2024-01-16T18:40:10;51.17;;;13.63;;
21168;SDS011;10742;51.816;8.662;2024-01-16T18:43:32;22.67;;;5.93;;
21168;SDS011;10742;51.816;8.662;2024-01-16T18:46:53;17.13;;;5.30;;
21168;SDS011;10742;51.816;8.662;2024-01-16T18:50:15;14.67;;;4.20;;
21168;SDS011;10742;51.816;8.662;2024-01-16T18:53:39;16.73;;;4.60;;
21168;SDS011;10742;51.816;8.662;2024-01-16T18:57:01;13.00;;;4.10;;
21168;SDS011;10742;51.816;8.662;2024-01-16T19:00:23;12.97;;;3.90;;
21168;SDS011;10742;51.816;8.662;2024-01-16T19:03:45;13.10;;;3.67;;
21168;SDS011;10742;51.816;8.662;2024-01-16T19:07:07;12.70;;;3.90;;
21168;SDS011;10742;51.816;8.662;2024-01-16T19:10:35;15.77;;;4.03;;
21168;SDS011;10742;51.816;8.662;2024-01-16T19:13:56;12.13;;;3.83;;
21168;SDS011;10742;51.816;8.662;2024-01-16T19:17:18;11.30;;;3.70;;
21168;SDS011;10742;51.816;8.662;2024-01-16T19:20:39;13.20;;;4.67;;
21168;SDS011;10742;51.816;8.662;2024-01-16T19:24:01;12.93;;;3.77;;
21168;SDS011;10742;51.816;8.662;2024-01-16T19:27:22;10.40;;;3.93;;
21168;SDS011;10742;51.816;8.662;2024-01-16T19:30:44;12.13;;;4.13;;
21168;SDS011;10742;51.816;8.662;2024-01-16T19:34:05;12.83;;;4.00;;
21168;SDS011;10742;51.816;8.662;2024-01-16T19:37:28;13.37;;;3.70;;
21168;SDS011;10742;51.816;8.662;2024-01-16T19:40:49;18.63;;;4.03;;
21168;SDS011;10742;51.816;8.662;2024-01-16T19:44:11;15.47;;;3.70;;
21168;SDS011;10742;51.816;8.662;2024-01-16T19:47:32;10.13;;;3.77;;
21168;SDS011;10742;51.816;8.662;2024-01-16T19:51:01;18.00;;;4.50;;
21168;SDS011;10742;51.816;8.662;2024-01-16T19:54:23;11.90;;;3.87;;
21168;SDS011;10742;51.816;8.662;2024-01-16T19:57:46;21.30;;;5.63;;
21168;SDS011;10742;51.816;8.662;2024-01-16T20:01:08;26.90;;;6.20;;
21168;SDS011;10742;51.816;8.662;2024-01-16T20:04:29;19.77;;;6.60;;
21168;SDS011;10742;51.816;8.662;2024-01-16T20:07:51;18.07;;;5.47;;
21168;SDS011;10742;51.816;8.662;2024-01-16T20:11:14;21.23;;;6.93;;